Time;durP1;ratioP1;P1;durP2;ratioP2;P2;SDS_P1;SDS_P2;PMS_P1;PMS_P2;Temp;Humidity;BMP_temperature;BMP_pressure;BME280_temperature;BME280_humidity;BME280_pressure;Samples;Min_cycle;Max_cycle;Signal;HPM_P1;HPM_P2
2021/12/05 00:17:38;;;;;;;27.50;11.23;;;8.50;82.60;;;;;;5123369;27;20226;-77
2021/12/05 00:20:41;;;;;;;29.83;10.80;;;8.50;82.50;;;;;;5122859;27;20203;-77
2021/12/05 00:23:14;;;;;;;26.83;11.13;;;8.50;82.50;;;;;;5123331;27;20251;-78
2021/12/05 00:25:48;;;;;;;25.43;11.87;;;8.60;82.60;;;;;;5125816;27;20197;-78
2021/12/05 00:39:59;;;;;;;25.13;12.23;;;8.60;82.50;;;;;;5122244;27;20187;-77
2021/12/05 00:48:34;;;;;;;27.73;11.40;;;8.70;82.50;;;;;;5124608;27;20887;-77
2021/12/05 00:56:57;;;;;;;24.73;10.63;;;8.70;82.40;;;;;;5122070;27;20201;-77
2021/12/05 00:59:39;;;;;;;23.37;9.93;;;8.80;82.50;;;;;;5124962;27;20184;-77
2021/12/05 01:02:18;;;;;;;23.83;9.87;;;8.70;82.30;;;;;;5117509;27;20244;-77
2021/12/05 01:05:13;;;;;;;21.30;9.67;;;8.70;82.20;;;;;;5120018;27;20917;-77
2021/12/05 01:10:39;;;;;;;23.57;9.70;;;8.70;82.20;;;;;;5125055;27;20252;-78
2021/12/05 01:13:30;;;;;;;19.27;9.30;;;8.70;82.10;;;;;;5124784;27;20193;-77
2021/12/05 01:16:04;;;;;;;17.83;8.83;;;8.80;82.20;;;;;;5121503;27;20199;-77
2021/12/05 01:18:33;;;;;;;18.53;7.97;;;8.80;82.10;;;;;;5125299;27;20210;-77
2021/12/05 01:21:07;;;;;;;20.27;8.20;;;8.80;82.10;;;;;;5121654;27;20837;-78
2021/12/05 01:23:44;;;;;;;20.00;8.80;;;8.80;82.00;;;;;;5122846;27;20203;-75
2021/12/05 01:26:17;;;;;;;26.50;11.10;;;8.90;82.00;;;;;;5120557;27;20203;-77
2021/12/05 01:29:17;;;;;;;30.10;11.00;;;8.90;82.00;;;;;;5116517;27;20181;-77
2021/12/05 01:31:58;;;;;;;25.07;9.90;;;9.00;82.20;;;;;;5121029;27;20227;-77
2021/12/05 01:34:47;;;;;;;22.60;9.87;;;9.00;82.00;;;;;;5123216;28;20200;-77
2021/12/05 01:37:28;;;;;;;27.47;11.10;;;9.10;81.90;;;;;;5121136;28;20714;-78
2021/12/05 01:43:38;;;;;;;30.27;11.83;;;9.20;81.70;;;;;;5138720;27;20597;-76
2021/12/05 01:49:11;;;;;;;30.13;12.27;;;9.20;81.50;;;;;;5141045;27;20192;-77
2021/12/05 01:57:46;;;;;;;28.63;12.00;;;9.30;81.30;;;;;;5133382;27;20199;-76
2021/12/05 02:00:53;;;;;;;25.57;11.60;;;9.40;81.20;;;;;;5138862;27;20205;-76
2021/12/05 02:31:39;;;;;;;27.47;10.20;;;9.60;80.00;;;;;;5136587;27;20208;-75
2021/12/05 02:37:12;;;;;;;25.90;11.00;;;9.60;79.90;;;;;;5133676;27;20191;-76
2021/12/05 02:39:55;;;;;;;30.00;11.13;;;9.50;79.90;;;;;;5137452;27;20183;-77
2021/12/05 02:42:31;;;;;;;26.73;12.00;;;9.50;79.90;;;;;;5139770;27;20234;-77
2021/12/05 02:44:59;;;;;;;25.90;10.80;;;9.50;79.90;;;;;;5140237;27;20244;-77
2021/12/05 02:47:29;;;;;;;25.13;11.33;;;9.50;79.90;;;;;;5138979;27;20188;-76
2021/12/05 02:50:01;;;;;;;22.77;10.50;;;9.50;79.90;;;;;;5140601;27;20191;-76
2021/12/05 02:52:34;;;;;;;26.53;11.43;;;9.50;80.00;;;;;;5131206;27;20192;-76
2021/12/05 02:55:10;;;;;;;25.67;11.53;;;9.50;80.00;;;;;;5121929;27;20224;-77
2021/12/05 02:57:53;;;;;;;25.97;10.27;;;9.40;80.00;;;;;;5124116;27;20202;-76
2021/12/05 03:00:34;;;;;;;24.00;10.87;;;9.40;80.20;;;;;;5125271;27;20442;-77
2021/12/05 03:03:03;;;;;;;28.00;10.03;;;9.50;80.20;;;;;;5123672;27;20243;-76
2021/12/05 03:05:32;;;;;;;26.47;10.83;;;9.40;80.20;;;;;;5118539;27;20583;-77
2021/12/05 03:08:01;;;;;;;26.73;10.13;;;9.40;80.20;;;;;;5123543;27;20256;-76
2021/12/05 03:10:30;;;;;;;27.73;11.43;;;9.40;80.20;;;;;;5127363;27;20192;-77
2021/12/05 03:12:59;;;;;;;21.73;9.87;;;9.40;80.20;;;;;;5122508;27;20195;-76
2021/12/05 03:15:28;;;;;;;27.20;11.17;;;9.50;80.90;;;;;;5124848;27;20283;-75
2021/12/05 03:17:56;;;;;;;24.50;11.17;;;9.50;80.20;;;;;;5122415;27;20234;-76
2021/12/05 03:20:24;;;;;;;28.13;11.47;;;9.40;80.10;;;;;;5124693;27;20237;-76
2021/12/05 03:22:53;;;;;;;27.17;11.07;;;9.40;80.10;;;;;;5124078;27;20268;-76
2021/12/05 03:25:23;;;;;;;28.30;11.13;;;9.40;80.20;;;;;;5117885;27;20201;-75
2021/12/05 03:27:52;;;;;;;24.60;10.60;;;9.40;80.20;;;;;;5126001;27;20195;-76
2021/12/05 03:30:23;;;;;;;24.47;10.03;;;9.40;80.20;;;;;;5119938;27;20203;-75
2021/12/05 03:32:52;;;;;;;24.33;10.50;;;9.40;80.10;;;;;;5122898;27;20185;-77
2021/12/05 03:35:25;;;;;;;22.37;9.67;;;9.40;80.20;;;;;;5125216;27;20847;-77
2021/12/05 03:37:54;;;;;;;22.13;10.17;;;9.40;80.20;;;;;;5123051;27;20193;-76
2021/12/05 03:40:26;;;;;;;24.50;10.43;;;9.40;80.10;;;;;;5125736;27;20256;-75
2021/12/05 03:42:56;;;;;;;25.10;10.27;;;9.40;80.00;;;;;;5124938;27;20207;-77
2021/12/05 03:45:28;;;;;;;22.83;9.70;;;9.40;80.00;;;;;;5123018;27;20185;-76
2021/12/05 03:47:57;;;;;;;24.73;11.13;;;9.40;80.00;;;;;;5122218;27;20613;-77
2021/12/05 03:50:26;;;;;;;27.83;11.80;;;9.50;80.10;;;;;;5125423;27;20192;-76
2021/12/05 03:52:55;;;;;;;28.30;11.47;;;9.40;80.00;;;;;;5114843;27;20283;-76
2021/12/05 03:55:25;;;;;;;27.57;11.07;;;9.40;80.00;;;;;;5122595;27;20207;-76
2021/12/05 03:57:53;;;;;;;28.97;11.80;;;9.40;80.00;;;;;;5123128;27;20185;-76
2021/12/05 04:00:24;;;;;;;28.77;10.77;;;9.40;80.10;;;;;;5124374;27;20189;-76
2021/12/05 04:02:55;;;;;;;26.87;11.73;;;9.40;80.10;;;;;;5124743;27;20219;-76
2021/12/05 04:05:31;;;;;;;24.87;10.53;;;9.40;80.10;;;;;;5120000;27;20184;-76
2021/12/05 04:07:59;;;;;;;27.07;11.13;;;9.40;80.10;;;;;;5125791;27;20187;-76
2021/12/05 04:10:30;;;;;;;24.37;9.77;;;9.40;80.20;;;;;;5124382;27;20297;-77
2021/12/05 04:12:58;;;;;;;22.80;10.67;;;9.40;80.20;;;;;;5125078;27;20188;-77
2021/12/05 04:15:27;;;;;;;24.97;10.50;;;9.30;80.20;;;;;;5125265;27;20215;-77
2021/12/05 04:17:55;;;;;;;19.47;9.47;;;9.40;80.20;;;;;;5124999;27;20195;-77
2021/12/05 04:20:24;;;;;;;24.00;9.37;;;9.40;80.10;;;;;;5123251;27;20191;-76
2021/12/05 04:22:53;;;;;;;22.13;10.10;;;9.30;80.10;;;;;;5119940;27;20227;-77
2021/12/05 04:25:23;;;;;;;21.20;9.80;;;9.30;80.00;;;;;;5119580;27;20195;-77
2021/12/05 04:27:55;;;;;;;21.57;10.00;;;9.30;80.00;;;;;;5124602;27;20199;-76
2021/12/05 04:30:25;;;;;;;25.47;10.40;;;9.30;80.10;;;;;;5115076;27;20189;-77
2021/12/05 04:32:54;;;;;;;29.57;10.63;;;9.20;80.10;;;;;;5123978;27;20192;-77
2021/12/05 04:35:22;;;;;;;28.27;10.17;;;9.30;80.20;;;;;;5122891;27;20252;-76
2021/12/05 04:37:51;;;;;;;25.17;11.63;;;9.30;80.20;;;;;;5122280;27;20271;-77
2021/12/05 04:40:20;;;;;;;23.70;10.20;;;9.20;80.20;;;;;;5123416;27;20194;-76
2021/12/05 04:42:49;;;;;;;24.27;10.33;;;9.20;80.20;;;;;;5123978;27;20227;-76
2021/12/05 04:45:22;;;;;;;24.93;10.60;;;9.30;80.20;;;;;;5123781;27;20582;-75
2021/12/05 04:47:51;;;;;;;28.00;10.20;;;9.30;80.20;;;;;;5120160;27;20206;-76
2021/12/05 04:50:20;;;;;;;26.07;10.77;;;9.20;80.20;;;;;;5123917;27;20226;-76
2021/12/05 04:52:49;;;;;;;22.73;10.23;;;9.20;80.30;;;;;;5120124;27;20709;-77
2021/12/05 04:55:19;;;;;;;26.23;10.63;;;9.20;80.30;;;;;;5122348;27;20195;-77
2021/12/05 04:57:48;;;;;;;22.87;9.40;;;9.20;80.30;;;;;;5120511;27;20200;-77
2021/12/05 05:00:21;;;;;;;27.13;10.87;;;9.10;80.50;;;;;;5122493;27;20370;-76
2021/12/05 05:02:50;;;;;;;19.43;9.27;;;9.10;80.50;;;;;;5122625;27;20213;-76
2021/12/05 05:05:19;;;;;;;26.07;10.00;;;9.00;80.50;;;;;;5119763;27;20191;-77
2021/12/05 05:07:47;;;;;;;22.10;8.83;;;9.00;80.70;;;;;;5125295;27;20280;-77
2021/12/05 05:10:18;;;;;;;23.00;10.40;;;8.90;80.70;;;;;;5124006;27;20206;-76
2021/12/05 05:12:47;;;;;;;25.40;10.30;;;8.90;80.70;;;;;;5124975;27;20524;-77
2021/12/05 05:15:22;;;;;;;23.30;9.70;;;8.90;80.70;;;;;;5122117;27;20207;-76
2021/12/05 05:17:53;;;;;;;18.90;9.67;;;8.90;81.00;;;;;;5123967;27;20195;-76
2021/12/05 05:20:26;;;;;;;26.87;8.57;;;8.90;81.00;;;;;;5124329;27;20627;-77
2021/12/05 05:39:53;;;;;;;17.90;7.70;;;8.80;81.30;;;;;;5123397;28;20187;-76
2021/12/05 05:43:00;;;;;;;21.53;8.70;;;8.80;81.40;;;;;;5123523;28;20220;-77
2021/12/05 05:48:32;;;;;;;15.63;8.13;;;8.70;81.60;;;;;;5115662;27;20219;-77
2021/12/05 05:51:01;;;;;;;20.17;9.07;;;8.70;81.60;;;;;;5119989;27;20195;-77
2021/12/05 05:53:30;;;;;;;20.90;8.97;;;8.70;81.70;;;;;;5114802;27;20203;-77
2021/12/05 05:55:58;;;;;;;19.63;7.83;;;8.60;81.70;;;;;;5120896;27;20195;-76
2021/12/05 05:58:36;;;;;;;17.70;7.87;;;8.60;81.80;;;;;;5121161;27;20200;-77
2021/12/05 06:01:09;;;;;;;18.23;8.70;;;8.60;81.90;;;;;;5117088;27;20287;-77
2021/12/05 06:03:41;;;;;;;22.07;8.73;;;8.60;82.10;;;;;;5122041;28;20684;-77
2021/12/05 06:06:12;;;;;;;21.33;8.70;;;8.50;82.20;;;;;;5118260;27;20202;-77
2021/12/05 06:08:42;;;;;;;23.47;9.03;;;8.50;82.20;;;;;;5119816;28;20197;-77
2021/12/05 06:11:12;;;;;;;22.50;8.37;;;8.50;82.20;;;;;;5123638;28;20203;-78
2021/12/05 06:13:41;;;;;;;23.47;9.63;;;8.50;82.50;;;;;;5121227;28;20206;-77
2021/12/05 06:16:12;;;;;;;24.50;10.00;;;8.50;82.60;;;;;;5123262;28;20251;-78
2021/12/05 06:18:42;;;;;;;20.87;8.50;;;8.50;82.80;;;;;;5123430;28;20652;-79
2021/12/05 06:21:11;;;;;;;23.83;9.70;;;8.40;82.90;;;;;;5123595;28;20195;-78
2021/12/05 06:23:40;;;;;;;26.17;11.17;;;8.40;83.20;;;;;;5127242;27;20218;-77
2021/12/05 06:26:12;;;;;;;25.30;9.33;;;8.30;83.20;;;;;;5126746;27;20198;-77
2021/12/05 06:28:42;;;;;;;22.63;9.60;;;8.30;83.30;;;;;;5125240;27;20199;-78
2021/12/05 06:31:21;;;;;;;27.60;9.57;;;8.30;83.50;;;;;;5127455;27;20194;-78
2021/12/05 06:36:58;;;;;;;25.27;9.63;;;8.30;83.50;;;;;;5126883;27;20242;-78
2021/12/05 06:39:39;;;;;;;24.03;10.03;;;8.30;83.60;;;;;;5127272;27;20191;-77
2021/12/05 06:42:32;;;;;;;23.90;9.97;;;8.30;83.60;;;;;;5129013;27;20220;-78
2021/12/05 06:47:54;;;;;;;25.63;10.43;;;8.30;83.70;;;;;;5099360;27;20199;-78
2021/12/05 06:50:24;;;;;;;26.67;10.20;;;8.30;83.80;;;;;;5124798;27;20187;-77
2021/12/05 06:52:52;;;;;;;26.20;9.50;;;8.30;83.90;;;;;;5128171;27;20820;-78
2021/12/05 06:55:21;;;;;;;21.33;9.30;;;8.30;83.90;;;;;;5129245;27;20197;-78
2021/12/05 06:57:49;;;;;;;24.00;10.20;;;8.30;84.00;;;;;;5131888;27;20283;-78
2021/12/05 07:00:21;;;;;;;23.73;9.20;;;8.30;84.00;;;;;;5126563;27;20192;-78
2021/12/05 07:02:52;;;;;;;22.83;9.50;;;8.30;84.00;;;;;;5079763;27;20205;-78
2021/12/05 07:08:10;;;;;;;24.13;10.00;;;8.30;84.10;;;;;;5122080;27;20191;-78
2021/12/05 07:10:46;;;;;;;20.80;8.87;;;8.30;84.00;;;;;;5128146;27;20183;-77
2021/12/05 07:16:07;;;;;;;21.97;9.77;;;8.20;84.20;;;;;;5126013;27;20307;-77
2021/12/05 07:18:47;;;;;;;22.13;9.30;;;8.20;84.20;;;;;;5127909;27;20669;-78
2021/12/05 07:21:28;;;;;;;22.10;9.37;;;8.20;84.40;;;;;;5126950;27;20198;-77
2021/12/05 07:24:06;;;;;;;30.93;11.23;;;8.20;84.70;;;;;;5124444;27;20843;-77
2021/12/05 07:26:50;;;;;;;29.77;11.63;;;8.20;84.60;;;;;;5124971;27;20187;-77
2021/12/05 07:40:29;;;;;;;31.17;11.60;;;8.20;85.00;;;;;;5127095;27;20272;-76
2021/12/05 07:43:00;;;;;;;34.90;12.93;;;8.20;85.00;;;;;;5126756;27;20191;-76
2021/12/05 07:45:34;;;;;;;31.17;12.40;;;8.20;85.10;;;;;;5131463;27;20203;-76
2021/12/05 07:48:10;;;;;;;36.60;13.50;;;8.20;85.00;;;;;;5125861;27;20197;-75
2021/12/05 07:50:46;;;;;;;38.80;12.93;;;8.20;85.00;;;;;;5126714;27;20191;-76
2021/12/05 07:53:21;;;;;;;39.70;13.33;;;8.30;85.20;;;;;;5126478;27;20735;-76
2021/12/05 07:55:55;;;;;;;37.67;13.57;;;8.30;85.10;;;;;;5127553;27;20184;-76
2021/12/05 07:58:47;;;;;;;44.70;15.87;;;8.30;85.00;;;;;;5127069;27;20183;-76
2021/12/05 08:15:15;;;;;;;38.27;14.17;;;8.40;85.00;;;;;;5125876;27;20173;-76
2021/12/05 08:17:52;;;;;;;40.63;14.43;;;8.40;85.00;;;;;;5119344;27;20763;-76
2021/12/05 08:20:25;;;;;;;43.47;15.70;;;8.40;84.90;;;;;;5126661;27;20184;-76
2021/12/05 08:22:54;;;;;;;40.13;14.10;;;8.40;84.80;;;;;;5116797;27;20190;-76
2021/12/05 08:25:28;;;;;;;41.50;14.80;;;8.40;84.80;;;;;;5122722;27;20687;-76
2021/12/05 08:28:08;;;;;;;34.97;13.90;;;8.40;85.00;;;;;;5126454;27;20540;-76
2021/12/05 08:30:39;;;;;;;33.17;13.80;;;8.40;84.90;;;;;;5123875;27;20195;-77
2021/12/05 08:33:30;;;;;;;39.43;13.33;;;8.40;84.80;;;;;;5121822;27;20219;-75
2021/12/05 08:36:20;;;;;;;41.93;13.37;;;8.40;85.00;;;;;;5120601;27;20191;-76
2021/12/05 09:21:29;;;;;;;31.53;12.17;;;8.60;84.50;;;;;;5122192;27;20241;-75
2021/12/05 09:24:23;;;;;;;24.47;10.50;;;8.60;84.30;;;;;;5119773;27;20362;-76
2021/12/05 09:30:28;;;;;;;32.90;11.33;;;8.70;83.90;;;;;;5025057;28;20194;-76
2021/12/05 10:02:43;;;;;;;29.97;11.00;;;8.50;84.50;;;;;;5058757;28;20292;-76
2021/12/05 10:11:05;;;;;;;27.40;11.23;;;8.50;84.20;;;;;;5061099;28;20190;-73
2021/12/05 10:13:45;;;;;;;28.60;10.87;;;8.60;84.60;;;;;;5056979;28;20281;-73
2021/12/05 10:16:23;;;;;;;24.70;9.90;;;8.60;84.50;;;;;;5060291;28;20209;-75
2021/12/05 10:19:19;;;;;;;34.03;13.63;;;8.60;84.40;;;;;;5059571;28;20966;-75
2021/12/05 10:36:01;;;;;;;21.60;9.37;;;8.70;83.30;;;;;;5126642;27;20934;-75
2021/12/05 10:38:37;;;;;;;23.97;10.20;;;8.70;83.50;;;;;;5122878;27;20282;-76
2021/12/05 10:41:21;;;;;;;23.00;9.33;;;8.70;83.50;;;;;;5126145;27;20614;-75
2021/12/05 10:43:53;;;;;;;21.50;9.33;;;8.70;83.50;;;;;;5121098;27;20811;-75
2021/12/05 10:46:24;;;;;;;21.57;8.90;;;8.70;83.50;;;;;;5126314;27;20212;-75
2021/12/05 10:48:55;;;;;;;22.23;9.73;;;8.60;83.50;;;;;;5125893;27;20198;-76
2021/12/05 10:51:27;;;;;;;23.03;9.10;;;8.60;83.50;;;;;;5126839;27;20189;-77
2021/12/05 10:53:56;;;;;;;21.63;9.03;;;8.60;83.80;;;;;;5121813;27;20316;-77
2021/12/05 10:56:27;;;;;;;22.30;9.77;;;8.60;83.80;;;;;;5126836;27;20698;-75
2021/12/05 10:59:00;;;;;;;21.10;9.10;;;8.60;83.90;;;;;;5125176;27;20233;-76
2021/12/05 11:01:38;;;;;;;22.60;9.40;;;8.70;84.10;;;;;;5126690;27;20184;-75
2021/12/05 11:04:10;;;;;;;23.67;9.20;;;8.70;84.10;;;;;;5116063;27;20196;-76
2021/12/05 11:06:50;;;;;;;18.90;8.53;;;8.70;84.00;;;;;;5121775;27;20207;-76
2021/12/05 11:09:24;;;;;;;21.50;8.40;;;8.70;83.90;;;;;;5124091;27;20744;-76
2021/12/05 11:11:56;;;;;;;19.37;7.90;;;8.70;83.80;;;;;;5119583;27;20191;-75
2021/12/05 11:14:28;;;;;;;20.20;7.90;;;8.80;83.90;;;;;;5127506;27;20184;-76
2021/12/05 11:17:03;;;;;;;19.10;9.00;;;8.80;83.90;;;;;;5126097;27;20196;-75
2021/12/05 11:19:36;;;;;;;20.17;8.47;;;8.80;83.60;;;;;;5131505;27;20707;-75
2021/12/05 11:22:15;;;;;;;19.50;8.67;;;8.80;83.50;;;;;;5125064;27;20192;-75
2021/12/05 11:24:46;;;;;;;24.37;9.27;;;8.80;83.40;;;;;;5123693;27;20215;-76
2021/12/05 11:27:34;;;;;;;14.70;7.67;;;8.80;83.30;;;;;;5126881;27;20191;-75
2021/12/05 11:30:11;;;;;;;19.63;8.27;;;8.80;83.40;;;;;;5126309;27;20185;-75
2021/12/05 11:32:44;;;;;;;21.97;9.33;;;8.90;83.50;;;;;;5125387;27;20192;-76
2021/12/05 11:35:28;;;;;;;21.93;9.43;;;8.90;83.60;;;;;;5125787;27;20246;-76
2021/12/05 11:38:09;;;;;;;22.20;9.63;;;8.90;83.60;;;;;;5124661;27;20188;-75
2021/12/05 11:40:51;;;;;;;16.47;7.63;;;8.90;83.50;;;;;;5125808;27;20192;-76
2021/12/05 11:43:24;;;;;;;17.90;7.70;;;9.00;83.60;;;;;;5083362;28;20213;-75
2021/12/05 11:45:58;;;;;;;16.63;7.10;;;9.00;83.30;;;;;;5080575;28;21345;-76
2021/12/05 11:48:32;;;;;;;18.30;6.47;;;9.00;83.20;;;;;;5071682;28;20193;-76
2021/12/05 11:51:02;;;;;;;15.33;6.97;;;9.00;83.20;;;;;;5084861;28;20182;-75
2021/12/05 11:53:39;;;;;;;15.70;6.77;;;9.10;83.40;;;;;;5084610;28;20194;-75
2021/12/05 11:56:09;;;;;;;15.53;6.50;;;9.10;82.90;;;;;;5073641;28;20181;-75
2021/12/05 11:58:39;;;;;;;17.57;7.70;;;9.10;82.60;;;;;;5083522;28;20193;-75
2021/12/05 12:01:12;;;;;;;15.67;7.47;;;9.10;82.50;;;;;;5084520;28;20223;-75
2021/12/05 12:03:41;;;;;;;17.07;7.43;;;9.10;82.60;;;;;;5080091;28;20202;-75
2021/12/05 12:06:10;;;;;;;16.73;7.23;;;9.10;82.70;;;;;;5083809;28;20217;-74
2021/12/05 12:08:38;;;;;;;15.47;7.63;;;9.10;82.70;;;;;;5085312;28;20266;-74
2021/12/05 12:11:06;;;;;;;16.50;8.10;;;9.10;82.60;;;;;;5081582;28;20201;-74
2021/12/05 12:13:38;;;;;;;16.97;8.43;;;9.10;82.60;;;;;;5084148;28;20247;-74
2021/12/05 12:16:10;;;;;;;19.80;7.87;;;9.00;82.60;;;;;;5085380;28;20185;-74
2021/12/05 12:18:44;;;;;;;19.33;8.43;;;9.00;82.80;;;;;;5085049;28;20216;-74
2021/12/05 12:21:18;;;;;;;19.23;8.53;;;9.00;82.90;;;;;;5083259;28;20818;-76
2021/12/05 12:23:48;;;;;;;18.50;8.57;;;9.10;83.00;;;;;;5081672;28;20193;-74
2021/12/05 12:26:17;;;;;;;21.20;8.33;;;9.10;82.90;;;;;;5081417;28;20221;-75
2021/12/05 12:28:46;;;;;;;20.90;9.03;;;9.10;82.90;;;;;;5082206;28;20201;-75
2021/12/05 12:31:18;;;;;;;23.50;8.60;;;9.10;83.00;;;;;;5083829;28;20193;-75
2021/12/05 12:33:53;;;;;;;17.10;8.40;;;9.10;83.00;;;;;;5082063;28;20275;-75
2021/12/05 12:36:35;;;;;;;19.60;9.17;;;9.10;83.00;;;;;;5082328;28;20270;-75
2021/12/05 12:39:07;;;;;;;20.40;8.97;;;9.10;83.00;;;;;;5083027;28;20185;-75
2021/12/05 12:41:35;;;;;;;22.07;8.97;;;9.10;83.00;;;;;;5102654;27;20212;-76
2021/12/05 12:44:08;;;;;;;17.03;7.83;;;9.10;83.00;;;;;;5127939;27;20177;-75
2021/12/05 12:46:40;;;;;;;22.13;10.77;;;9.10;83.00;;;;;;5132501;27;20661;-75
2021/12/05 12:49:29;;;;;;;22.13;12.07;;;9.00;82.90;;;;;;5125112;27;20177;-75
2021/12/05 12:52:03;;;;;;;17.63;7.97;;;9.10;83.10;;;;;;5114673;27;20192;-76
2021/12/05 12:54:36;;;;;;;20.53;9.20;;;9.10;83.10;;;;;;5107033;27;20179;-75
2021/12/05 12:57:11;;;;;;;22.03;9.20;;;9.10;83.00;;;;;;5123394;27;20181;-75
2021/12/05 12:59:42;;;;;;;21.73;8.33;;;9.10;83.00;;;;;;5125415;27;20192;-76
2021/12/05 13:02:31;;;;;;;21.83;9.07;;;9.00;83.10;;;;;;5123485;27;20227;-76
2021/12/05 13:05:18;;;;;;;14.60;7.40;;;9.00;83.20;;;;;;5119677;27;20620;-76
2021/12/05 13:10:39;;;;;;;17.33;8.50;;;9.00;82.90;;;;;;5120807;27;20191;-76
2021/12/05 13:13:15;;;;;;;18.45;9.20;;;8.90;82.90;;;;;;5122770;27;20437;-76
2021/12/05 13:15:47;;;;;;;18.73;9.30;;;8.90;83.20;;;;;;5124142;27;20821;-76
2021/12/05 13:18:29;;;;;;;22.00;8.90;;;8.90;83.30;;;;;;5125529;27;20188;-75
2021/12/05 13:21:03;;;;;;;23.53;10.37;;;8.90;83.40;;;;;;5123407;27;20183;-76
2021/12/05 13:23:41;;;;;;;20.20;9.70;;;8.90;83.50;;;;;;5123848;27;20198;-76
2021/12/05 13:26:33;;;;;;;24.43;10.17;;;8.90;83.60;;;;;;5124305;27;20220;-75
2021/12/05 13:29:13;;;;;;;20.00;9.13;;;8.90;83.70;;;;;;5122925;27;20195;-75
2021/12/05 13:31:51;;;;;;;21.90;10.40;;;8.90;83.70;;;;;;5107806;27;20188;-76
2021/12/05 13:34:36;;;;;;;23.47;10.27;;;8.90;83.90;;;;;;5122572;27;20248;-75
2021/12/05 13:37:29;;;;;;;25.80;10.07;;;8.90;83.90;;;;;;5124050;27;20187;-76
2021/12/05 13:40:17;;;;;;;22.40;10.03;;;8.80;84.10;;;;;;5123022;27;20183;-75
2021/12/05 13:42:48;;;;;;;17.20;8.80;;;8.80;84.10;;;;;;5120563;28;20223;-76
2021/12/05 13:45:21;;;;;;;21.43;9.50;;;8.80;84.10;;;;;;5112996;28;20260;-75
2021/12/05 13:48:25;;;;;;;19.67;9.27;;;8.90;84.00;;;;;;5115496;28;20208;-76
2021/12/05 13:51:00;;;;;;;22.27;8.73;;;8.90;84.10;;;;;;5069481;27;20195;-76
2021/12/05 13:53:49;;;;;;;22.23;8.60;;;8.90;84.20;;;;;;5129939;27;20705;-75
2021/12/05 13:56:24;;;;;;;20.23;8.50;;;8.90;84.20;;;;;;5120597;28;20192;-76
2021/12/05 13:58:56;;;;;;;22.70;9.70;;;8.90;84.00;;;;;;5122090;28;20195;-75
2021/12/05 14:01:28;;;;;;;20.87;8.47;;;8.90;83.90;;;;;;5125508;27;20195;-76
2021/12/05 14:04:01;;;;;;;23.17;9.53;;;8.80;83.90;;;;;;5121454;28;20188;-76
2021/12/05 14:06:53;;;;;;;20.47;9.43;;;8.90;83.90;;;;;;5123787;27;20749;-75
2021/12/05 14:09:27;;;;;;;21.70;9.17;;;8.80;83.80;;;;;;5118568;28;20188;-75
2021/12/05 14:12:00;;;;;;;20.77;9.03;;;8.80;83.70;;;;;;5121731;27;20583;-76
2021/12/05 14:14:30;;;;;;;22.40;9.90;;;8.80;83.70;;;;;;5121423;28;20192;-76
2021/12/05 14:17:00;;;;;;;22.93;9.87;;;8.80;83.70;;;;;;5120247;28;20196;-76
2021/12/05 14:19:31;;;;;;;21.40;9.87;;;8.90;83.80;;;;;;5123371;28;20185;-76
2021/12/05 14:22:03;;;;;;;20.47;9.13;;;8.90;83.80;;;;;;5122927;27;20184;-76
2021/12/05 14:24:35;;;;;;;19.23;9.43;;;8.90;83.80;;;;;;5121816;27;20901;-76
2021/12/05 14:27:08;;;;;;;19.80;9.00;;;8.90;83.70;;;;;;5121468;28;20208;-75
2021/12/05 14:29:40;;;;;;;18.90;9.10;;;8.90;83.60;;;;;;5123711;28;20184;-76
2021/12/05 14:32:12;;;;;;;22.03;9.33;;;9.00;83.70;;;;;;5123476;28;20200;-76
2021/12/05 14:34:42;;;;;;;22.23;10.53;;;9.00;84.40;;;;;;5123829;28;20230;-76
2021/12/05 14:37:13;;;;;;;20.13;9.30;;;9.00;83.50;;;;;;5121601;28;20188;-76
2021/12/05 14:39:44;;;;;;;24.63;10.57;;;9.00;83.50;;;;;;5123669;28;20904;-76
2021/12/05 14:42:16;;;;;;;23.37;9.50;;;9.00;83.40;;;;;;5122427;28;20223;-76
2021/12/05 14:44:47;;;;;;;27.57;10.73;;;9.10;83.50;;;;;;5121912;27;20184;-77
2021/12/05 14:47:18;;;;;;;24.57;9.90;;;9.10;83.40;;;;;;5116583;28;20262;-76
2021/12/05 14:49:51;;;;;;;21.47;10.13;;;9.10;83.40;;;;;;5122581;27;20216;-77
2021/12/05 14:52:24;;;;;;;21.57;9.70;;;9.10;83.40;;;;;;5126891;27;20237;-76
2021/12/05 14:54:55;;;;;;;24.07;11.10;;;9.10;83.30;;;;;;5126045;27;20191;-75
2021/12/05 14:57:26;;;;;;;25.53;10.67;;;9.10;83.30;;;;;;5122960;27;20203;-75
2021/12/05 15:00:01;;;;;;;24.33;10.80;;;9.00;83.20;;;;;;5123411;27;20655;-76
2021/12/05 15:02:30;;;;;;;26.93;11.53;;;9.00;83.20;;;;;;5114432;27;20182;-76
2021/12/05 15:04:59;;;;;;;26.83;10.77;;;9.00;83.30;;;;;;5125601;27;20702;-76
2021/12/05 15:07:29;;;;;;;27.97;11.63;;;8.90;83.30;;;;;;5117047;27;20226;-76
2021/12/05 15:09:59;;;;;;;25.20;10.57;;;9.00;83.40;;;;;;5119144;27;20181;-75
2021/12/05 15:12:30;;;;;;;30.90;11.87;;;9.00;83.50;;;;;;5124757;27;20188;-75
2021/12/05 15:15:01;;;;;;;26.17;11.63;;;8.90;83.50;;;;;;5125746;27;20729;-75
2021/12/05 15:17:35;;;;;;;31.13;13.00;;;8.90;83.40;;;;;;5126738;27;20183;-76
2021/12/05 15:20:09;;;;;;;28.43;12.20;;;8.90;83.40;;;;;;5125360;27;20188;-75
2021/12/05 15:22:41;;;;;;;28.87;11.97;;;8.90;83.50;;;;;;5125557;27;20220;-77
2021/12/05 15:25:13;;;;;;;25.00;11.03;;;8.90;83.50;;;;;;5124154;27;20203;-76
2021/12/05 15:27:42;;;;;;;27.63;11.77;;;8.90;83.60;;;;;;5123346;27;20208;-76
2021/12/05 15:30:14;;;;;;;24.80;11.23;;;8.90;83.70;;;;;;5122695;27;20917;-76
2021/12/05 15:32:44;;;;;;;29.77;12.77;;;8.90;83.70;;;;;;5125432;27;20188;-76
2021/12/05 15:35:15;;;;;;;26.53;11.63;;;8.80;83.70;;;;;;5125336;27;20192;-75
2021/12/05 15:37:48;;;;;;;23.33;11.03;;;8.80;83.70;;;;;;5124804;27;20222;-75
2021/12/05 15:40:18;;;;;;;26.87;11.67;;;8.80;83.60;;;;;;5122936;27;20867;-75
2021/12/05 15:42:47;;;;;;;25.60;12.07;;;8.80;83.80;;;;;;5124629;27;20231;-75
2021/12/05 15:45:19;;;;;;;22.90;10.97;;;8.70;83.70;;;;;;5126223;27;20741;-76
2021/12/05 15:47:49;;;;;;;43.37;11.97;;;8.70;83.80;;;;;;5123183;27;20219;-76
2021/12/05 15:50:19;;;;;;;30.67;13.50;;;8.70;83.80;;;;;;5124664;27;20192;-75
2021/12/05 15:53:00;;;;;;;32.03;13.10;;;8.70;83.90;;;;;;5112539;27;20503;-75
2021/12/05 15:55:58;;;;;;;36.77;12.30;;;8.70;83.90;;;;;;5111077;27;20571;-75
2021/12/05 15:58:31;;;;;;;29.13;12.53;;;8.60;83.90;;;;;;5114311;27;20796;-75
2021/12/05 16:01:05;;;;;;;30.47;12.83;;;8.60;83.90;;;;;;5123212;27;20195;-76
2021/12/05 16:03:41;;;;;;;38.27;13.27;;;8.60;84.80;;;;;;5123015;27;20211;-73
2021/12/05 16:06:13;;;;;;;31.60;11.90;;;8.60;84.20;;;;;;5119165;27;20194;-75
2021/12/05 16:08:43;;;;;;;37.93;15.37;;;8.60;84.20;;;;;;5120618;27;20207;-76
2021/12/05 16:11:15;;;;;;;34.27;14.13;;;8.50;84.20;;;;;;5123585;27;20206;-76
2021/12/05 16:13:46;;;;;;;30.23;12.50;;;8.60;84.50;;;;;;5125220;27;20679;-75
2021/12/05 16:16:17;;;;;;;32.50;12.93;;;8.50;84.50;;;;;;5122895;27;20573;-76
2021/12/05 16:18:49;;;;;;;32.80;13.60;;;8.50;84.50;;;;;;5124771;27;20286;-76
2021/12/05 16:21:20;;;;;;;35.40;14.13;;;8.50;84.50;;;;;;5123715;27;20197;-75
2021/12/05 16:23:49;;;;;;;34.07;13.63;;;8.50;84.70;;;;;;5121803;27;20589;-75
2021/12/05 16:26:22;;;;;;;31.53;13.07;;;8.50;84.70;;;;;;5123950;27;20196;-75
2021/12/05 16:28:53;;;;;;;34.23;13.70;;;8.50;84.80;;;;;;5116426;27;20767;-74
2021/12/05 16:31:24;;;;;;;29.50;12.90;;;8.50;84.80;;;;;;5131271;27;20696;-77
2021/12/05 16:33:55;;;;;;;40.77;14.97;;;8.50;84.90;;;;;;5122742;27;20693;-75
2021/12/05 16:36:29;;;;;;;38.97;14.97;;;8.50;84.80;;;;;;5121420;27;20191;-74
2021/12/05 16:39:06;;;;;;;34.17;15.07;;;8.60;85.00;;;;;;5120955;27;20192;-74
2021/12/05 16:41:36;;;;;;;35.60;14.87;;;8.60;85.00;;;;;;5119598;27;20858;-75
2021/12/05 16:44:09;;;;;;;36.33;14.80;;;8.60;85.10;;;;;;5124085;27;20198;-74
2021/12/05 16:46:40;;;;;;;40.07;15.83;;;8.70;85.10;;;;;;5122289;27;20277;-75
2021/12/05 16:49:13;;;;;;;37.37;16.33;;;8.70;85.00;;;;;;5120532;27;20242;-75
2021/12/05 16:51:50;;;;;;;38.63;15.97;;;8.70;84.90;;;;;;5122032;27;20256;-75
2021/12/05 16:54:22;;;;;;;37.97;15.80;;;8.70;84.70;;;;;;5114323;27;20184;-76
2021/12/05 16:56:58;;;;;;;39.77;15.57;;;8.80;84.80;;;;;;5112120;27;20194;-76
2021/12/05 16:59:30;;;;;;;40.87;16.50;;;8.80;84.70;;;;;;5115651;27;20585;-76
2021/12/05 17:02:17;;;;;;;39.90;15.87;;;8.80;84.70;;;;;;5123778;27;20187;-76
2021/12/05 17:05:01;;;;;;;42.33;16.20;;;8.80;84.70;;;;;;5121785;27;20626;-77
2021/12/05 17:07:46;;;;;;;42.93;15.60;;;8.80;84.60;;;;;;5124571;27;20640;-76
2021/12/05 17:10:41;;;;;;;41.70;16.63;;;8.80;84.50;;;;;;5117810;27;20188;-76
2021/12/05 17:13:21;;;;;;;48.93;18.33;;;8.80;84.60;;;;;;5120368;27;20191;-76
2021/12/05 17:15:59;;;;;;;50.77;18.03;;;8.80;84.70;;;;;;5122564;27;20214;-75
2021/12/05 17:18:35;;;;;;;50.67;19.93;;;8.80;84.60;;;;;;5124836;27;20839;-76